Observation data for Reese Center on 01/19/2019      Previous  Date  Next       Current Mesonet Observations  Soil Data  Daily Summary Page  Observations in Plain Language
KREE 190600Z 35020G25KT 01/M01 A3007 RMK A01 T00111005  RH  090%=      5-min Rain = 0
KREE 190605Z 35018G26KT 01/M01 A3007 RMK A01 T00111005  RH  090%=      5-min Rain = 0
KREE 190610Z 35021G28KT 01/M01 A3007 RMK A01 T00111008  RH  088%=      5-min Rain = 0
KREE 190615Z 35021G26KT 01/M01 A3007 RMK A01 T00101009  RH  088%=      5-min Rain = 0
KREE 190620Z 35020G25KT 01/M01 A3008 RMK A01 T00091010  RH  088%=      5-min Rain = 0
KREE 190625Z 34019G24KT 01/M01 A3008 RMK A01 T00081010  RH  089%=      5-min Rain = 0
KREE 190630Z 34019KT 01/M01 A3008 RMK A01 T00081011  RH  088%=      5-min Rain = 0
KREE 190635Z 34017KT 01/M01 A3008 RMK A01 T00081011  RH  088%=      5-min Rain = 0
KREE 190640Z 34017G22KT 01/M01 A3008 RMK A01 T00071011  RH  088%=      5-min Rain = 0
KREE 190645Z 34018G23KT 01/M01 A3008 RMK A01 T00081013  RH  087%=      5-min Rain = 0
KREE 190650Z 34021G28KT 01/M02 A3008 RMK A01 T00081015  RH  086%=      5-min Rain = 0
KREE 190655Z 34023G29KT 01/M02 A3008 RMK A01 T00081017  RH  084%=      5-min Rain = 0
KREE 190700Z 34022G27KT 01/M02 A3008 RMK A01 T00091019  RH  083%=      5-min Rain = 0
KREE 190705Z 34021G27KT 01/M02 A3008 RMK A01 T00071021  RH  082%=      5-min Rain = 0
KREE 190710Z 34020G26KT 01/M02 A3008 RMK A01 T00061022  RH  082%=      5-min Rain = 0
KREE 190715Z 34023G29KT 01/M02 A3008 RMK A01 T00051024  RH  081%=      5-min Rain = 0
KREE 190720Z 35022G28KT 01/M03 A3009 RMK A01 T00051025  RH  081%=      5-min Rain = 0
KREE 190725Z 35023G31KT 01/M03 A3009 RMK A01 T00051025  RH  081%=      5-min Rain = 0
KREE 190730Z 35020G28KT 01/M03 A3009 RMK A01 T00051026  RH  081%=      5-min Rain = 0
KREE 190735Z 35020G25KT 00/M03 A3009 RMK A01 T00041025  RH  082%=      5-min Rain = 0
KREE 190740Z 34021G26KT 00/M03 A3009 RMK A01 T00041025  RH  082%=      5-min Rain = 0
KREE 190745Z 34023KT 00/M03 A3009 RMK A01 T00041027  RH  081%=      5-min Rain = 0
KREE 190750Z 34024G30KT 00/M03 A301 RMK A01 T00041029  RH  080%=      5-min Rain = 0
KREE 190755Z 34024G29KT 00/M03 A301 RMK A01 T00031030  RH  079%=      5-min Rain = 0
KREE 190800Z 34023G30KT 00/M03 A301 RMK A01 T00031030  RH  080%=      5-min Rain = 0
KREE 190805Z 34022G32KT 00/M03 A3011 RMK A01 T00031030  RH  080%=      5-min Rain = 0
KREE 190810Z 34018G24KT 00/M03 A3011 RMK A01 T00011028  RH  082%=      5-min Rain = 0
KREE 190815Z 34023G29KT 00/M03 A3011 RMK A01 T00021030  RH  080%=      5-min Rain = 0
KREE 190820Z 34024G30KT 00/M03 A3011 RMK A01 T00021033  RH  078%=      5-min Rain = 0
KREE 190825Z 34023G31KT 00/M03 A3012 RMK A01 T00011033  RH  079%=      5-min Rain = 0
KREE 190830Z 34019G24KT M00/M03 A3012 RMK A01 T10011033  RH  080%=      5-min Rain = 0
KREE 190835Z 33019G24KT M00/M03 A3012 RMK A01 T10031031  RH  082%=      5-min Rain = 0
KREE 190840Z 33022G29KT M00/M03 A3012 RMK A01 T10011032  RH  080%=      5-min Rain = 0
KREE 190845Z 34023G28KT 00/03 A3012 RMK A01 T00-00-34  RH  079%=      5-min Rain = 0
KREE 190850Z 33022G27KT M00/M04 A3012 RMK A01 T10011035  RH  079%=      5-min Rain = 0
KREE 190855Z 33021G27KT 00/04 A3012 RMK A01 T00-00-35  RH  078%=      5-min Rain = 0
KREE 190900Z 33021G31KT M00/M04 A3012 RMK A01 T10011035  RH  079%=      5-min Rain = 0
KREE 190905Z 33021G26KT 00/04 A3013 RMK A01 T00-00-35  RH  078%=      5-min Rain = 0
KREE 190910Z 33021KT M00/M04 A3013 RMK A01 T10011035  RH  079%=      5-min Rain = 0
KREE 190915Z 34022G28KT M00/M04 A3013 RMK A01 T10011037  RH  078%=      5-min Rain = 0
KREE 190920Z 34024G30KT M00/M04 A3014 RMK A01 T10011038  RH  077%=      5-min Rain = 0
KREE 190925Z 34021G27KT M00/M04 A3014 RMK A01 T10021038  RH  078%=      5-min Rain = 0
KREE 190930Z 34022G30KT M00/M04 A3014 RMK A01 T10021039  RH  077%=      5-min Rain = 0
KREE 190935Z 34020G27KT M00/M04 A3015 RMK A01 T10031040  RH  077%=      5-min Rain = 0
KREE 190940Z 33020KT M00/M04 A3015 RMK A01 T10041040  RH  077%=      5-min Rain = 0
KREE 190945Z 33018G24KT M00/M04 A3016 RMK A01 T10041039  RH  078%=      5-min Rain = 0
KREE 190950Z 32017G22KT M01/M04 A3016 RMK A01 T10051038  RH  079%=      5-min Rain = 0
KREE 190955Z 32017KT M01/M04 A3016 RMK A01 T10051038  RH  080%=      5-min Rain = 0
KREE 191000Z 32018G23KT M01/M04 A3017 RMK A01 T10051037  RH  080%=      5-min Rain = 0
KREE 191005Z 33018KT M00/M04 A3017 RMK A01 T10041037  RH  079%=      5-min Rain = 0
KREE 191010Z 33017G22KT M01/M04 A3017 RMK A01 T10051038  RH  079%=      5-min Rain = 0
KREE 191015Z 32016KT M01/M04 A3017 RMK A01 T10061037  RH  080%=      5-min Rain = 0
KREE 191020Z 32016KT M01/M04 A3018 RMK A01 T10061037  RH  081%=      5-min Rain = 0
KREE 191025Z 32016KT M01/M04 A3018 RMK A01 T10061037  RH  081%=      5-min Rain = 0
KREE 191030Z 32016KT M01/M04 A3018 RMK A01 T10061036  RH  081%=      5-min Rain = 0
KREE 191035Z 33016KT M01/M04 A3018 RMK A01 T10071036  RH  081%=      5-min Rain = 0
KREE 191040Z 33016KT M01/M04 A3018 RMK A01 T10061036  RH  081%=      5-min Rain = 0
KREE 191045Z 32015G20KT M01/M04 A3018 RMK A01 T10051036  RH  080%=      5-min Rain = 0
KREE 191050Z 32015G21KT M01/M04 A3019 RMK A01 T10061036  RH  081%=      5-min Rain = 0
KREE 191055Z 32016KT M01/M04 A3019 RMK A01 T10051035  RH  081%=      5-min Rain = 0
KREE 191100Z 33016KT M01/M04 A3019 RMK A01 T10051035  RH  081%=      5-min Rain = 0
KREE 191105Z 33015KT M01/M04 A3019 RMK A01 T10051036  RH  081%=      5-min Rain = 0
KREE 191110Z 33014KT M01/M04 A3019 RMK A01 T10051036  RH  080%=      5-min Rain = 0
KREE 191115Z 33012KT M01/M04 A3019 RMK A01 T10071036  RH  081%=      5-min Rain = 0
KREE 191120Z 33011KT M01/M04 A3019 RMK A01 T10071036  RH  082%=      5-min Rain = 0
KREE 191125Z 34010KT M01/M04 A3019 RMK A01 T10091037  RH  082%=      5-min Rain = 0
KREE 191130Z 34010KT M01/M04 A3019 RMK A01 T10101038  RH  082%=      5-min Rain = 0
KREE 191135Z 34010KT M01/M04 A3019 RMK A01 T10111038  RH  083%=      5-min Rain = 0
KREE 191140Z 33009KT M01/M04 A3019 RMK A01 T10121039  RH  083%=      5-min Rain = 0
KREE 191145Z 33008KT M01/M04 A3019 RMK A01 T10131039  RH  084%=      5-min Rain = 0
KREE 191150Z 33008KT M01/M04 A3019 RMK A01 T10141040  RH  084%=      5-min Rain = 0
KREE 191155Z 33007KT M02/M04 A3019 RMK A01 T10161040  RH  085%=      5-min Rain = 0
KREE 191200Z 32006KT M02/M04 A3019 RMK A01 T10191042  RH  086%=      5-min Rain = 0
KREE 191205Z 34005KT M02/M04 A3019 RMK A01 T10221043  RH  086%=      5-min Rain = 0
KREE 191210Z 34005KT M03/M05 A3019 RMK A01 T10251045  RH  087%=      5-min Rain = 0
KREE 191215Z 32005KT M03/M05 A302 RMK A01 T10281047  RH  088%=      5-min Rain = 0
KREE 191220Z 32006KT M03/M05 A3021 RMK A01 T10281046  RH  089%=      5-min Rain = 0
KREE 191225Z 33005KT M03/M05 A3021 RMK A01 T10301049  RH  088%=      5-min Rain = 0
KREE 191230Z 33005KT M03/M05 A3021 RMK A01 T10311048  RH  089%=      5-min Rain = 0
KREE 191235Z 33005KT M03/M05 A3021 RMK A01 T10311049  RH  088%=      5-min Rain = 0
KREE 191240Z 33006KT M03/M05 A3021 RMK A01 T10311048  RH  089%=      5-min Rain = 0
KREE 191245Z 32006KT M03/M05 A3021 RMK A01 T10321049  RH  089%=      5-min Rain = 0
KREE 191250Z 31007KT M03/M05 A3022 RMK A01 T10291046  RH  089%=      5-min Rain = 0
KREE 191255Z 30008KT M03/M05 A3022 RMK A01 T10311049  RH  088%=      5-min Rain = 0
KREE 191300Z 31009KT M03/M05 A3023 RMK A01 T10311049  RH  089%=      5-min Rain = 0
KREE 191305Z 31009KT M03/M05 A3023 RMK A01 T10291049  RH  087%=      5-min Rain = 0
KREE 191310Z 31009KT M03/M05 A3023 RMK A01 T10281049  RH  086%=      5-min Rain = 0
KREE 191315Z 31008KT M03/M05 A3023 RMK A01 T10261048  RH  086%=      5-min Rain = 0
KREE 191320Z 32009KT M02/M05 A3023 RMK A01 T10241047  RH  086%=      5-min Rain = 0
KREE 191325Z 31009KT M02/M05 A3023 RMK A01 T10231046  RH  085%=      5-min Rain = 0
KREE 191330Z 31010KT M02/M04 A3023 RMK A01 T10201044  RH  085%=      5-min Rain = 0
KREE 191335Z 31011KT M02/M04 A3024 RMK A01 T10181043  RH  084%=      5-min Rain = 0
KREE 191340Z 31011KT M02/M04 A3024 RMK A01 T10161041  RH  084%=      5-min Rain = 0
KREE 191345Z 31011KT M02/M04 A3024 RMK A01 T10151041  RH  083%=      5-min Rain = 0
KREE 191350Z 31010KT M02/M04 A3024 RMK A01 T10151042  RH  083%=      5-min Rain = 0
KREE 191355Z 31011KT M02/M04 A3025 RMK A01 T10161042  RH  083%=      5-min Rain = 0
KREE 191400Z 31011KT M01/M04 A3025 RMK A01 T10141041  RH  082%=      5-min Rain = 0
KREE 191405Z 31011KT M01/M04 A3025 RMK A01 T10121040  RH  082%=      5-min Rain = 0
KREE 191410Z 31012KT M01/M04 A3025 RMK A01 T10111040  RH  081%=      5-min Rain = 0
KREE 191415Z 31012KT M01/M04 A3026 RMK A01 T10101040  RH  081%=      5-min Rain = 0
KREE 191420Z 31012KT M01/M04 A3026 RMK A01 T10091039  RH  081%=      5-min Rain = 0
KREE 191425Z 31012KT M01/M04 A3027 RMK A01 T10081038  RH  081%=      5-min Rain = 0
KREE 191430Z 31011KT M01/M04 A3027 RMK A01 T10061037  RH  080%=      5-min Rain = 0
KREE 191435Z 31010KT M00/M04 A3027 RMK A01 T10031037  RH  079%=      5-min Rain = 0
KREE 191440Z 31010KT M00/M04 A3028 RMK A01 T10011036  RH  078%=      5-min Rain = 0
KREE 191445Z 31010KT 00/M04 A3028 RMK A01 T00011035  RH  077%=      5-min Rain = 0
KREE 191450Z 31010KT 00/M03 A3028 RMK A01 T00031034  RH  077%=      5-min Rain = 0
KREE 191455Z 31010KT 01/M03 A3028 RMK A01 T00051033  RH  076%=      5-min Rain = 0
KREE 191500Z 32010KT 01/M03 A3028 RMK A01 T00091031  RH  076%=      5-min Rain = 0
KREE 191505Z 32011G17KT 01/M03 A3028 RMK A01 T00121030  RH  074%=      5-min Rain = 0
KREE 191510Z 32011KT 01/M03 A3029 RMK A01 T00141030  RH  074%=      5-min Rain = 0
KREE 191515Z 32011KT 02/M03 A3029 RMK A01 T00171027  RH  073%=      5-min Rain = 0
KREE 191520Z 32012KT 02/M03 A3029 RMK A01 T00201028  RH  072%=      5-min Rain = 0
KREE 191525Z 32014KT 02/M03 A303 RMK A01 T00231026  RH  071%=      5-min Rain = 0
KREE 191530Z 32014KT 03/M03 A303 RMK A01 T00251026  RH  070%=      5-min Rain = 0
KREE 191535Z 33015KT 03/M03 A303 RMK A01 T00281026  RH  068%=      5-min Rain = 0
KREE 191540Z 33015KT 03/M03 A303 RMK A01 T00311025  RH  067%=      5-min Rain = 0
KREE 191545Z 33015KT 04/M03 A303 RMK A01 T00351025  RH  066%=      5-min Rain = 0
KREE 191550Z 33014G19KT 04/M02 A303 RMK A01 T00391023  RH  065%=      5-min Rain = 0
KREE 191555Z 33017G22KT 04/M02 A303 RMK A01 T00411024  RH  063%=      5-min Rain = 0
KREE 191600Z 33017KT 05/M03 A303 RMK A01 T00451025  RH  061%=      5-min Rain = 0
KREE 191605Z 33017G24KT 05/M03 A303 RMK A01 T00471025  RH  060%=      5-min Rain = 0
KREE 191610Z 34019G24KT 05/M03 A303 RMK A01 T00481031  RH  057%=      5-min Rain = 0
KREE 191615Z 34019G26KT 05/M03 A3031 RMK A01 T00511032  RH  056%=      5-min Rain = 0
KREE 191620Z 34019G25KT 05/M03 A3031 RMK A01 T00541030  RH  055%=      5-min Rain = 0
KREE 191625Z 34019KT 06/M03 A3031 RMK A01 T00551031  RH  054%=      5-min Rain = 0
KREE 191630Z 35020G27KT 06/M03 A3031 RMK A01 T00551034  RH  053%=      5-min Rain = 0
KREE 191635Z 35019G25KT 06/M03 A3031 RMK A01 T00571033  RH  053%=      5-min Rain = 0
KREE 191640Z 34020G25KT 06/M03 A3031 RMK A01 T00591033  RH  052%=      5-min Rain = 0
KREE 191645Z 35020G25KT 06/M03 A3031 RMK A01 T00601033  RH  052%=      5-min Rain = 0
KREE 191650Z 35019G24KT 06/M03 A3031 RMK A01 T00621034  RH  051%=      5-min Rain = 0
KREE 191655Z 35017G25KT 07/M03 A3031 RMK A01 T00671031  RH  050%=      5-min Rain = 0
KREE 191700Z 35019G25KT 07/M03 A3031 RMK A01 T00661034  RH  050%=      5-min Rain = 0
KREE 191705Z 35019G25KT 07/M04 A3031 RMK A01 T00661035  RH  049%=      5-min Rain = 0
KREE 191710Z 36018G24KT 07/M03 A3031 RMK A01 T00691033  RH  049%=      5-min Rain = 0
KREE 191715Z 36017G22KT 07/M03 A3031 RMK A01 T00701032  RH  049%=      5-min Rain = 0
KREE 191720Z 34019G24KT 07/M03 A3032 RMK A01 T00731031  RH  048%=      5-min Rain = 0
KREE 191725Z 35021KT 07/M03 A3032 RMK A01 T00711033  RH  048%=      5-min Rain = 0
KREE 191730Z 35019KT 07/M03 A3031 RMK A01 T00711032  RH  048%=      5-min Rain = 0
KREE 191735Z 35019G26KT 07/M03 A3031 RMK A01 T00741031  RH  048%=      5-min Rain = 0
KREE 191740Z 36019G24KT 08/M03 A3032 RMK A01 T00761032  RH  047%=      5-min Rain = 0
KREE 191745Z 36018G23KT 08/M03 A3032 RMK A01 T00771031  RH  047%=      5-min Rain = 0
KREE 191750Z 36018G23KT 08/M03 A3032 RMK A01 T00811030  RH  046%=      5-min Rain = 0
KREE 191755Z 36017G23KT 08/M03 A3032 RMK A01 T00821030  RH  046%=      5-min Rain = 0
KREE 191800Z 35017G23KT 08/M03 A3031 RMK A01 T00831030  RH  045%=      5-min Rain = 0
KREE 191805Z 36020G25KT 09/M03 A3031 RMK A01 T00851031  RH  044%=      5-min Rain = 0
KREE 191810Z 35018KT 08/M03 A3031 RMK A01 T00841032  RH  044%=      5-min Rain = 0
KREE 191815Z 36021KT 09/M03 A3031 RMK A01 T00861033  RH  043%=      5-min Rain = 0
KREE 191820Z 36018G23KT 09/M03 A303 RMK A01 T00881031  RH  044%=      5-min Rain = 0
KREE 191825Z 36017G22KT 09/M03 A303 RMK A01 T00881030  RH  044%=      5-min Rain = 0
KREE 191830Z 35017G22KT 09/M03 A303 RMK A01 T00911030  RH  043%=      5-min Rain = 0
KREE 191835Z 34019G25KT 09/M03 A303 RMK A01 T00901032  RH  042%=      5-min Rain = 0
KREE 191840Z 34020KT 09/M03 A303 RMK A01 T00911033  RH  042%=      5-min Rain = 0
KREE 191845Z 35016G23KT 09/M03 A3031 RMK A01 T00941031  RH  042%=      5-min Rain = 0
KREE 191850Z 35021KT 09/M04 A303 RMK A01 T00941035  RH  041%=      5-min Rain = 0
KREE 191855Z 35017G23KT 10/M03 A303 RMK A01 T00961032  RH  041%=      5-min Rain = 0
KREE 191900Z 36017G24KT 10/M03 A303 RMK A01 T00961033  RH  041%=      5-min Rain = 0
KREE 191905Z 35016KT 10/M03 A303 RMK A01 T00991032  RH  040%=      5-min Rain = 0
KREE 191910Z 35017G22KT 10/M03 A303 RMK A01 T01011033  RH  039%=      5-min Rain = 0
KREE 191915Z 36016G24KT 10/M03 A3029 RMK A01 T01011034  RH  039%=      5-min Rain = 0
KREE 191920Z 35017G22KT 10/M04 A3029 RMK A01 T01021036  RH  038%=      5-min Rain = 0
KREE 191925Z 35017G22KT 10/M04 A3029 RMK A01 T01021036  RH  038%=      5-min Rain = 0
KREE 191930Z 36018KT 10/M04 A3029 RMK A01 T01031036  RH  038%=      5-min Rain = 0
KREE 191935Z 35015G20KT 10/M04 A3029 RMK A01 T01041036  RH  037%=      5-min Rain = 0
KREE 191940Z 36013G20KT 11/M03 A3029 RMK A01 T01051033  RH  038%=      5-min Rain = 0
KREE 191945Z 34015G21KT 11/M04 A3029 RMK A01 T01081036  RH  037%=      5-min Rain = 0
KREE 191950Z 34016G22KT 11/M04 A3029 RMK A01 T01051036  RH  037%=      5-min Rain = 0
KREE 191955Z 34017G22KT 11/M04 A3028 RMK A01 T01051036  RH  037%=      5-min Rain = 0
KREE 192000Z 35015G20KT 11/M04 A3028 RMK A01 T01061035  RH  037%=      5-min Rain = 0
KREE 192005Z 35014G19KT 11/M03 A3028 RMK A01 T01071033  RH  038%=      5-min Rain = 0
KREE 192010Z 34013G18KT 11/M04 A3028 RMK A01 T01051035  RH  037%=      5-min Rain = 0
KREE 192015Z 33014G19KT 11/M04 A3028 RMK A01 T01081036  RH  037%=      5-min Rain = 0
KREE 192020Z 35013KT 11/M03 A3027 RMK A01 T01091034  RH  037%=      5-min Rain = 0
KREE 192025Z 33014KT 11/M04 A3027 RMK A01 T01101036  RH  036%=      5-min Rain = 0
KREE 192030Z 33014G19KT 11/M04 A3027 RMK A01 T01071037  RH  036%=      5-min Rain = 0
KREE 192035Z 33013G20KT 11/M04 A3027 RMK A01 T01091035  RH  037%=      5-min Rain = 0
KREE 192040Z 34015KT 11/M04 A3026 RMK A01 T01101036  RH  036%=      5-min Rain = 0
KREE 192045Z 34012KT 11/M04 A3026 RMK A01 T01091035  RH  037%=      5-min Rain = 0
KREE 192050Z 33012G17KT 11/M04 A3026 RMK A01 T01101035  RH  036%=      5-min Rain = 0
KREE 192055Z 34012KT 11/M03 A3026 RMK A01 T01111034  RH  036%=      5-min Rain = 0
KREE 192100Z 33013G19KT 11/M04 A3026 RMK A01 T01111035  RH  036%=      5-min Rain = 0
KREE 192105Z 33012KT 11/M04 A3026 RMK A01 T01101036  RH  036%=      5-min Rain = 0
KREE 192110Z 34012KT 11/M03 A3026 RMK A01 T01101034  RH  037%=      5-min Rain = 0
KREE 192115Z 35012G18KT 11/M03 A3026 RMK A01 T01121033  RH  036%=      5-min Rain = 0
KREE 192120Z 34015KT 11/M04 A3026 RMK A01 T01101038  RH  035%=      5-min Rain = 0
KREE 192125Z 32012G17KT 11/M04 A3026 RMK A01 T01121035  RH  036%=      5-min Rain = 0
KREE 192130Z 33013G18KT 11/M03 A3026 RMK A01 T01111034  RH  036%=      5-min Rain = 0
KREE 192135Z 33014G19KT 11/M03 A3026 RMK A01 T01111034  RH  036%=      5-min Rain = 0
KREE 192140Z 35012G17KT 11/M03 A3026 RMK A01 T01111032  RH  037%=      5-min Rain = 0
KREE 192145Z 34011KT 11/M03 A3026 RMK A01 T01131031  RH  037%=      5-min Rain = 0
KREE 192150Z 34011KT 11/M03 A3026 RMK A01 T01121030  RH  037%=      5-min Rain = 0
KREE 192155Z 34012G18KT 11/M03 A3026 RMK A01 T01111033  RH  037%=      5-min Rain = 0
KREE 192200Z 33012KT 11/M03 A3026 RMK A01 T01111034  RH  037%=      5-min Rain = 0
KREE 192205Z 32010KT 11/M03 A3026 RMK A01 T01091033  RH  037%=      5-min Rain = 0
KREE 192210Z 32010KT 11/M03 A3026 RMK A01 T01101030  RH  038%=      5-min Rain = 0
KREE 192215Z 33010KT 11/M03 A3026 RMK A01 T01101032  RH  037%=      5-min Rain = 0
KREE 192220Z 34010KT 11/M03 A3026 RMK A01 T01101033  RH  037%=      5-min Rain = 0
KREE 192225Z 35011KT 11/M03 A3025 RMK A01 T01111031  RH  037%=      5-min Rain = 0
KREE 192230Z 34011KT 11/M04 A3025 RMK A01 T01101035  RH  037%=      5-min Rain = 0
KREE 192235Z 35010KT 11/M03 A3025 RMK A01 T01091034  RH  037%=      5-min Rain = 0
KREE 192240Z 35011G16KT 11/M03 A3025 RMK A01 T01091032  RH  038%=      5-min Rain = 0
KREE 192245Z 00006KT 11/M03 A3025 RMK A01 T01091031  RH  038%=      5-min Rain = 0
KREE 192250Z 33006KT 11/M03 A3025 RMK A01 T01091033  RH  037%=      5-min Rain = 0
KREE 192255Z 34008G13KT 11/M03 A3026 RMK A01 T01081032  RH  038%=      5-min Rain = 0
KREE 192300Z 35009G14KT 11/M03 A3025 RMK A01 T01081031  RH  038%=      5-min Rain = 0
KREE 192305Z 35009KT 11/M03 A3025 RMK A01 T01071034  RH  037%=      5-min Rain = 0
KREE 192310Z 35009KT 11/M03 A3025 RMK A01 T01061032  RH  038%=      5-min Rain = 0
KREE 192315Z 35007KT 11/M03 A3025 RMK A01 T01061033  RH  038%=      5-min Rain = 0
KREE 192320Z 35007KT 10/M04 A3025 RMK A01 T01041036  RH  038%=      5-min Rain = 0
KREE 192325Z 36007KT 10/M03 A3025 RMK A01 T01031033  RH  039%=      5-min Rain = 0
KREE 192330Z 35006KT 10/M03 A3025 RMK A01 T01021032  RH  039%=      5-min Rain = 0
KREE 192335Z 01006KT 10/M03 A3025 RMK A01 T01001031  RH  040%=      5-min Rain = 0
KREE 192340Z 00006KT 10/M03 A3025 RMK A01 T00971032  RH  041%=      5-min Rain = 0
KREE 192345Z 00005KT 09/M03 A3026 RMK A01 T00931033  RH  041%=      5-min Rain = 0
KREE 192350Z 00006KT 09/M03 A3026 RMK A01 T00881033  RH  043%=      5-min Rain = 0
KREE 192355Z 01007KT 08/M04 A3026 RMK A01 T00821035  RH  044%=      5-min Rain = 0
KREE 200000Z 01007KT 07/M04 A3026 RMK A01 T00741036  RH  046%=      5-min Rain = 0
KREE 200005Z 02007KT 07/M04 A3026 RMK A01 T00681038  RH  047%=      5-min Rain = 0
KREE 200010Z 03007KT 07/M04 A3026 RMK A01 T00661037  RH  048%=      5-min Rain = 0
KREE 200015Z 04007KT 07/M04 A3026 RMK A01 T00691035  RH  048%=      5-min Rain = 0
KREE 200020Z 04007KT 07/M03 A3026 RMK A01 T00681034  RH  049%=      5-min Rain = 0
KREE 200025Z 04007KT 07/M03 A3026 RMK A01 T00691033  RH  049%=      5-min Rain = 0
KREE 200030Z 05008KT 07/M03 A3025 RMK A01 T00721033  RH  048%=      5-min Rain = 0
KREE 200035Z 05007KT 07/M03 A3026 RMK A01 T00691034  RH  048%=      5-min Rain = 0
KREE 200040Z 06007KT 06/M04 A3026 RMK A01 T00581038  RH  051%=      5-min Rain = 0
KREE 200045Z 06006KT 05/M04 A3026 RMK A01 T00501039  RH  053%=      5-min Rain = 0
KREE 200050Z 07005KT 04/M04 A3026 RMK A01 T00411041  RH  056%=      5-min Rain = 0
KREE 200055Z 07005KT 04/M04 A3026 RMK A01 T00391038  RH  058%=      5-min Rain = 0
KREE 200100Z 08004KT 04/M04 A3026 RMK A01 T00371039  RH  058%=      5-min Rain = 0
KREE 200105Z 09004KT 04/M04 A3027 RMK A01 T00381037  RH  059%=      5-min Rain = 0
KREE 200110Z 08006KT 04/M04 A3026 RMK A01 T00401036  RH  058%=      5-min Rain = 0
KREE 200115Z 08006KT 04/M04 A3026 RMK A01 T00371038  RH  058%=      5-min Rain = 0
KREE 200120Z 08007KT 03/M04 A3026 RMK A01 T00321039  RH  060%=      5-min Rain = 0
KREE 200125Z 08007KT 03/M04 A3026 RMK A01 T00321038  RH  061%=      5-min Rain = 0
KREE 200130Z 08007KT 03/M04 A3026 RMK A01 T00331038  RH  060%=      5-min Rain = 0
KREE 200135Z 09007KT 03/M04 A3026 RMK A01 T00311039  RH  061%=      5-min Rain = 0
KREE 200140Z 09008KT 03/M04 A3025 RMK A01 T00271040  RH  062%=      5-min Rain = 0
KREE 200145Z 09008KT 02/M04 A3025 RMK A01 T00231041  RH  063%=      5-min Rain = 0
KREE 200150Z 10008KT 03/M04 A3025 RMK A01 T00251040  RH  063%=      5-min Rain = 0
KREE 200155Z 11007KT 02/M04 A3025 RMK A01 T00231041  RH  063%=      5-min Rain = 0
KREE 200200Z 09008KT 03/M04 A3025 RMK A01 T00251040  RH  063%=      5-min Rain = 0
KREE 200205Z 09007KT 02/M04 A3025 RMK A01 T00241040  RH  063%=      5-min Rain = 0
KREE 200210Z 10006KT 03/M04 A3026 RMK A01 T00261040  RH  063%=      5-min Rain = 0
KREE 200215Z 10006KT 02/M04 A3026 RMK A01 T00231041  RH  063%=      5-min Rain = 0
KREE 200220Z 09006KT 02/M04 A3026 RMK A01 T00221042  RH  064%=      5-min Rain = 0
KREE 200225Z 08005KT 03/M04 A3027 RMK A01 T00281040  RH  062%=      5-min Rain = 0
KREE 200230Z 09006KT 03/M04 A3027 RMK A01 T00311040  RH  060%=      5-min Rain = 0
KREE 200235Z 11006KT 03/M04 A3027 RMK A01 T00271042  RH  061%=      5-min Rain = 0
KREE 200240Z 10005KT 02/M04 A3028 RMK A01 T00231042  RH  063%=      5-min Rain = 0
KREE 200245Z 09005KT 03/M04 A3028 RMK A01 T00281040  RH  062%=      5-min Rain = 0
KREE 200250Z 09006KT 03/M04 A3028 RMK A01 T00311041  RH  060%=      5-min Rain = 0
KREE 200255Z 10006KT 03/M04 A3028 RMK A01 T00271043  RH  061%=      5-min Rain = 0
KREE 200300Z 11007KT 02/M04 A3027 RMK A01 T00231044  RH  062%=      5-min Rain = 0
KREE 200305Z 11007KT 02/M05 A3027 RMK A01 T00161047  RH  064%=      5-min Rain = 0
KREE 200310Z 10007KT 02/M05 A3027 RMK A01 T00161047  RH  064%=      5-min Rain = 0
KREE 200315Z 11006KT 02/M05 A3027 RMK A01 T00161047  RH  064%=      5-min Rain = 0
KREE 200320Z 11005KT 02/M05 A3028 RMK A01 T00161047  RH  064%=      5-min Rain = 0
KREE 200325Z 11007KT 02/M05 A3027 RMK A01 T00181047  RH  063%=      5-min Rain = 0
KREE 200330Z 11008KT 01/M05 A3026 RMK A01 T00131049  RH  064%=      5-min Rain = 0
KREE 200335Z 12006KT 01/M05 A3027 RMK A01 T00121048  RH  065%=      5-min Rain = 0
KREE 200340Z 12005KT 01/M05 A3026 RMK A01 T00131047  RH  065%=      5-min Rain = 0
KREE 200345Z 12005KT 01/M05 A3026 RMK A01 T00091049  RH  066%=      5-min Rain = 0
KREE 200350Z 13005KT 01/M05 A3026 RMK A01 T00061049  RH  067%=      5-min Rain = 0
KREE 200355Z 13005KT 01/M05 A3026 RMK A01 T00091047  RH  067%=      5-min Rain = 0
KREE 200400Z 14005KT 02/M05 A3026 RMK A01 T00191046  RH  063%=      5-min Rain = 0
KREE 200405Z 14005KT 02/M05 A3026 RMK A01 T00211047  RH  061%=      5-min Rain = 0
KREE 200410Z 13005KT 02/M05 A3026 RMK A01 T00201049  RH  061%=      5-min Rain = 0
KREE 200415Z 13005KT 02/M05 A3026 RMK A01 T00201049  RH  061%=      5-min Rain = 0
KREE 200420Z 13005KT 02/M05 A3026 RMK A01 T00201049  RH  061%=      5-min Rain = 0
KREE 200425Z 15004KT 02/M05 A3027 RMK A01 T00211049  RH  060%=      5-min Rain = 0
KREE 200430Z 14004KT 02/M05 A3026 RMK A01 T00191050  RH  061%=      5-min Rain = 0
KREE 200435Z 13005KT 01/M05 A3026 RMK A01 T00141052  RH  062%=      5-min Rain = 0
KREE 200440Z 14004KT 02/M05 A3026 RMK A01 T00151050  RH  063%=      5-min Rain = 0
KREE 200445Z 14004KT 02/M05 A3026 RMK A01 T00151050  RH  063%=      5-min Rain = 0
KREE 200450Z 14004KT 01/M05 A3027 RMK A01 T00141051  RH  063%=      5-min Rain = 0
KREE 200455Z 14004KT 01/M05 A3027 RMK A01 T00131050  RH  063%=      5-min Rain = 0
KREE 200500Z 15004KT 01/M05 A3027 RMK A01 T00141050  RH  063%=      5-min Rain = 0
KREE 200505Z 15005KT 01/M05 A3027 RMK A01 T00141050  RH  063%=      5-min Rain = 0
KREE 200510Z 15005KT 01/M05 A3027 RMK A01 T00091053  RH  064%=      5-min Rain = 0
KREE 200515Z 15005KT 00/M06 A3027 RMK A01 T00031055  RH  066%=      5-min Rain = 0
KREE 200520Z 15005KT 00/06 A3027 RMK A01 T00000-55  RH  067%=      5-min Rain = 0
KREE 200525Z 15006KT M00/M06 A3027 RMK A01 T10011056  RH  067%=      5-min Rain = 0
KREE 200530Z 16006KT M00/M06 A3028 RMK A01 T10041055  RH  069%=      5-min Rain = 0
KREE 200535Z 16004KT M00/M06 A3028 RMK A01 T10041056  RH  069%=      5-min Rain = 0
KREE 200540Z 16005KT M00/M06 A3028 RMK A01 T10041055  RH  070%=      5-min Rain = 0
KREE 200545Z 17006KT M00/M06 A3028 RMK A01 T10041055  RH  069%=      5-min Rain = 0
KREE 200550Z 16006KT M01/M06 A3027 RMK A01 T10071056  RH  070%=      5-min Rain = 0
KREE 200555Z 16007KT M01/M05 A3028 RMK A01 T10061054  RH  071%=      5-min Rain = 0

Page generated in 0.0089 seconds.